This is the latest recevied weather packets stored in our database for station/object WBKK. If no packets are shown the sender has not sent any weather packets the latest 10 day(s).
| Time | Temp. | Humidity | Pressure | Rain* | Wind** | Luminosity | Snow |
|---|---|---|---|---|---|---|---|
| 1777972351 | 30.56° C | 74% | 1005 hPa | - | - | - | - |
| 1777970461 | 30.56° C | 74% | 1005 hPa | - | - | - | - |
| 1777968728 | 30.56° C | 74% | 1005 hPa | - | - | - | - |
| 1777966860 | 31.67° C | 70% | 1005 hPa | - | - | - | - |
| 1777965125 | 31.67° C | 70% | 1006 hPa | - | - | - | - |
| 1777963287 | 31.67° C | 70% | 1006 hPa | - | - | - | - |
| 1777961531 | 31.67° C | 70% | 1006 hPa | - | - | - | - |
| 1777959659 | 31.67° C | 70% | 1007 hPa | - | - | - | - |
| 1777957951 | 30.56° C | 70% | 1007 hPa | - | - | - | - |
| 1777956061 | 30.56° C | 70% | 1008 hPa | - | - | - | - |
| 1777954328 | 30.56° C | 74% | 1008 hPa | - | - | - | - |
| 1777952459 | 30.56° C | 74% | 1009 hPa | - | - | - | - |
| 1777950728 | 30.56° C | 70% | 1009 hPa | - | - | - | - |
| 1777948887 | 30.56° C | 70% | 1009 hPa | - | - | - | - |
| 1777947131 | 30.56° C | 70% | 1009 hPa | - | - | - | - |
| 1777945259 | 30° C | 74% | 1009 hPa | - | - | - | - |
| 1777943526 | 30° C | 70% | 1009 hPa | - | - | - | - |
| 1777941659 | 27.78° C | 78% | 1009 hPa | - | - | - | - |
| 1777939953 | 26.67° C | 78% | 1009 hPa | - | - | - | - |
| 1777938059 | 25.56° C | 83% | 1008 hPa | - | - | - | - |
| 1777936327 | 23.89° C | 94% | 1008 hPa | - | - | - | - |
| 1777934486 | 23.89° C | 88% | 1008 hPa | - | - | - | - |
| 1777932726 | 23.89° C | 88% | 1008 hPa | - | - | - | - |
| 1777930863 | 22.78° C | 94% | 1007 hPa | - | - | - | - |
| 1777929125 | 22.78° C | 94% | 1007 hPa | - | - | - | - |
* Rain since midnight (hover to see other rain measurements)
** Current wind speed in m/s (hover to see current wind gust speed)